createdAt,value
2022-10-22T00:00:33.387Z,100.00
2022-10-22T00:02:36.047Z,100.00
2022-10-22T00:04:38.695Z,100.00
2022-10-22T00:06:44.864Z,100.00
2022-10-22T00:08:47.490Z,100.00
2022-10-22T00:10:50.459Z,100.00
2022-10-22T00:12:53.049Z,100.00
2022-10-22T00:14:55.697Z,100.00
2022-10-22T00:17:00.906Z,100.00
2022-10-22T00:19:03.851Z,100.00
2022-10-22T00:21:07.650Z,100.00
2022-10-22T00:23:11.588Z,100.00
2022-10-22T00:25:14.232Z,100.00
2022-10-22T00:27:16.869Z,100.00
2022-10-22T00:29:20.032Z,100.00
2022-10-22T00:31:22.728Z,100.00
2022-10-22T00:33:25.573Z,100.00
2022-10-22T00:35:28.292Z,100.00
2022-10-22T00:37:31.128Z,100.00
2022-10-22T00:39:35.094Z,100.00
2022-10-22T00:41:37.747Z,100.00
2022-10-22T00:43:57.824Z,100.00
2022-10-22T00:46:00.401Z,100.00
2022-10-22T00:48:06.335Z,100.00
2022-10-22T00:50:12.949Z,100.00
2022-10-22T00:52:15.441Z,100.00
2022-10-22T00:54:18.084Z,100.00
2022-10-22T00:56:22.437Z,100.00
2022-10-22T00:58:28.165Z,100.00
2022-10-22T01:00:31.188Z,100.00
2022-10-22T01:02:34.204Z,100.00
2022-10-22T01:04:36.827Z,100.00
2022-10-22T01:06:39.776Z,100.00
2022-10-22T01:08:47.942Z,100.00
2022-10-22T01:11:00.946Z,100.00
2022-10-22T01:13:18.039Z,100.00
2022-10-22T01:15:29.842Z,100.00
2022-10-22T01:17:41.993Z,100.00
2022-10-22T01:19:59.539Z,100.00
2022-10-22T01:22:10.038Z,100.00
2022-10-22T01:24:33.688Z,100.00
2022-10-22T01:26:51.877Z,100.00
2022-10-22T01:29:02.304Z,100.00
2022-10-22T01:31:07.041Z,100.00
2022-10-22T01:33:14.215Z,100.00
2022-10-22T01:35:20.922Z,100.00
2022-10-22T01:37:27.760Z,100.00
2022-10-22T01:39:32.314Z,100.00
2022-10-22T01:41:36.182Z,100.00
2022-10-22T01:43:38.786Z,100.00
2022-10-22T01:45:44.978Z,100.00
2022-10-22T01:47:58.295Z,100.00
2022-10-22T01:50:26.579Z,100.00
2022-10-22T01:52:41.991Z,100.00
2022-10-22T01:54:55.015Z,100.00
2022-10-22T01:57:07.877Z,100.00
2022-10-22T01:59:19.057Z,100.00
2022-10-22T02:01:31.728Z,100.00
2022-10-22T02:03:39.691Z,100.00
2022-10-22T02:05:46.998Z,100.00
2022-10-22T02:07:52.963Z,100.00
2022-10-22T02:09:57.184Z,100.00
2022-10-22T02:14:15.017Z,100.00
2022-10-22T02:16:22.468Z,100.00
2022-10-22T02:18:30.918Z,100.00
2022-10-22T02:20:36.355Z,100.00
2022-10-22T02:22:40.169Z,100.00
2022-10-22T02:24:42.932Z,100.00
2022-10-22T02:26:53.318Z,100.00
2022-10-22T02:29:02.525Z,100.00
2022-10-22T02:31:14.216Z,100.00
2022-10-22T02:33:21.766Z,100.00
2022-10-22T02:35:28.559Z,100.00
2022-10-22T02:37:31.961Z,100.00
2022-10-22T02:39:36.954Z,100.00
2022-10-22T02:41:39.898Z,100.00
2022-10-22T02:43:43.752Z,100.00
2022-10-22T02:45:47.022Z,100.00
2022-10-22T02:47:49.848Z,100.00
2022-10-22T02:49:52.442Z,100.00
2022-10-22T02:51:56.479Z,100.00
2022-10-22T02:53:59.244Z,100.00
2022-10-22T02:56:02.063Z,100.00
2022-10-22T02:58:04.659Z,100.00
2022-10-22T03:00:08.807Z,100.00
2022-10-22T03:02:11.458Z,100.00
2022-10-22T03:04:14.102Z,100.00
2022-10-22T03:06:16.815Z,100.00
2022-10-22T03:08:20.809Z,100.00
2022-10-22T03:10:23.419Z,100.00
2022-10-22T03:12:26.073Z,100.00
2022-10-22T03:14:28.670Z,100.00
2022-10-22T03:16:31.388Z,100.00
2022-10-22T03:18:34.059Z,100.00
2022-10-22T03:20:36.782Z,100.00
2022-10-22T03:22:41.978Z,100.00
2022-10-22T03:24:49.397Z,100.00
2022-10-22T03:26:52.863Z,100.00
2022-10-22T03:28:55.768Z,100.00
2022-10-22T03:30:58.378Z,100.00
2022-10-22T03:33:01.104Z,100.00
2022-10-22T03:35:03.777Z,100.00
2022-10-22T03:37:06.881Z,100.00
2022-10-22T03:39:10.234Z,100.00
2022-10-22T03:41:14.293Z,100.00
2022-10-22T03:43:17.578Z,100.00
2022-10-22T03:45:20.210Z,100.00
2022-10-22T03:47:24.357Z,100.00
2022-10-22T03:49:27.031Z,100.00
2022-10-22T03:51:30.344Z,100.00
2022-10-22T03:53:32.991Z,100.00
2022-10-22T03:55:35.713Z,100.00
2022-10-22T03:57:40.103Z,100.00
2022-10-22T03:59:44.969Z,100.00
2022-10-22T04:01:47.593Z,100.00
2022-10-22T04:03:50.249Z,100.00
2022-10-22T04:05:52.844Z,100.00
2022-10-22T04:07:55.431Z,100.00
2022-10-22T04:09:58.230Z,100.00
2022-10-22T04:12:02.148Z,100.00
2022-10-22T04:14:06.766Z,100.00
2022-10-22T04:16:11.110Z,100.00
2022-10-22T04:18:13.685Z,100.00
2022-10-22T04:20:16.439Z,100.00
2022-10-22T04:22:19.026Z,100.00
2022-10-22T04:24:21.576Z,100.00
2022-10-22T04:26:24.393Z,100.00
2022-10-22T04:28:27.285Z,100.00
2022-10-22T04:30:31.245Z,100.00
2022-10-22T04:32:33.852Z,100.00
2022-10-22T04:34:36.456Z,100.00
2022-10-22T04:36:39.085Z,100.00
2022-10-22T04:38:42.382Z,100.00
2022-10-22T04:40:45.005Z,100.00
2022-10-22T04:42:47.598Z,100.00
2022-10-22T04:44:50.148Z,100.00
2022-10-22T04:46:54.096Z,100.00
2022-10-22T04:48:56.687Z,100.00
2022-10-22T04:51:00.721Z,100.00
2022-10-22T04:53:03.312Z,100.00
2022-10-22T04:55:06.572Z,100.00
2022-10-22T04:57:09.175Z,100.00
2022-10-22T04:59:13.536Z,100.00
2022-10-22T05:01:18.800Z,100.00
2022-10-22T05:03:25.349Z,100.00
2022-10-22T05:05:27.952Z,100.00
2022-10-22T05:07:30.512Z,100.00
2022-10-22T05:09:33.113Z,100.00
2022-10-22T05:11:37.986Z,100.00
2022-10-22T05:13:40.589Z,100.00
2022-10-22T05:15:43.144Z,100.00
2022-10-22T05:17:45.757Z,100.00
2022-10-22T05:19:49.672Z,100.00
2022-10-22T05:21:52.693Z,100.00
2022-10-22T05:23:56.682Z,100.00
2022-10-22T05:26:02.944Z,100.00
2022-10-22T05:28:05.845Z,100.00
2022-10-22T05:30:08.959Z,100.00
2022-10-22T05:32:11.536Z,100.00
2022-10-22T05:34:14.453Z,100.00
2022-10-22T05:36:20.628Z,100.00
2022-10-22T05:38:24.258Z,100.00
2022-10-22T05:40:30.887Z,100.00
2022-10-22T05:42:34.562Z,100.00
2022-10-22T05:44:37.268Z,100.00
2022-10-22T05:46:39.928Z,100.00
2022-10-22T05:48:42.645Z,100.00
2022-10-22T05:50:46.202Z,100.00
2022-10-22T05:52:50.117Z,100.00
2022-10-22T05:54:52.685Z,100.00
2022-10-22T05:56:55.559Z,100.00
2022-10-22T05:58:58.229Z,100.00
2022-10-22T06:01:04.969Z,100.00
2022-10-22T06:03:07.457Z,100.00
2022-10-22T06:05:10.190Z,100.00
2022-10-22T06:07:16.473Z,100.00
2022-10-22T06:09:23.307Z,100.00
2022-10-22T06:11:27.273Z,100.00
2022-10-22T06:13:32.716Z,100.00
2022-10-22T06:15:36.408Z,100.00
2022-10-22T06:17:38.988Z,100.00
2022-10-22T06:19:41.936Z,100.00
2022-10-22T06:21:44.828Z,100.00
2022-10-22T06:23:47.454Z,100.00
2022-10-22T06:25:58.744Z,100.00
2022-10-22T06:28:01.391Z,100.00
2022-10-22T06:30:04.367Z,100.00
2022-10-22T06:32:07.238Z,100.00
2022-10-22T06:34:13.215Z,100.00
2022-10-22T06:36:18.019Z,100.00
2022-10-22T06:38:20.689Z,100.00
2022-10-22T06:40:24.315Z,100.00
2022-10-22T06:42:28.681Z,100.00
2022-10-22T06:44:31.292Z,100.00
2022-10-22T06:46:33.991Z,100.00
2022-10-22T06:48:37.925Z,100.00
2022-10-22T06:50:40.568Z,100.00
2022-10-22T06:52:43.159Z,100.00
2022-10-22T06:54:45.722Z,100.00
2022-10-22T06:56:48.556Z,100.00
2022-10-22T06:58:54.718Z,100.00
2022-10-22T07:01:02.808Z,100.00
2022-10-22T07:03:05.556Z,100.00
2022-10-22T07:05:09.384Z,100.00
2022-10-22T07:07:12.045Z,100.00
2022-10-22T07:09:14.765Z,100.00
2022-10-22T07:11:19.009Z,100.00
2022-10-22T07:13:21.715Z,100.00
2022-10-22T07:15:25.921Z,100.00
2022-10-22T07:17:28.566Z,100.00
2022-10-22T07:19:31.431Z,100.00
2022-10-22T07:21:34.092Z,100.00
2022-10-22T07:23:36.785Z,100.00
2022-10-22T07:25:39.408Z,100.00
2022-10-22T07:27:42.294Z,100.00
2022-10-22T07:29:45.139Z,100.00
2022-10-22T07:31:49.097Z,100.00
2022-10-22T07:33:51.696Z,100.00
2022-10-22T07:35:59.273Z,100.00
2022-10-22T07:38:01.992Z,100.00
2022-10-22T07:40:04.921Z,100.00
2022-10-22T07:42:07.519Z,100.00
2022-10-22T07:44:10.096Z,100.00
2022-10-22T07:46:12.985Z,100.00
2022-10-22T07:48:17.070Z,100.00
2022-10-22T07:50:19.951Z,100.00
2022-10-22T07:52:22.549Z,100.00
2022-10-22T07:54:25.385Z,100.00
2022-10-22T07:56:28.012Z,100.00
2022-10-22T07:58:31.031Z,100.00
2022-10-22T08:00:33.617Z,100.00
2022-10-22T08:02:36.217Z,100.00
2022-10-22T08:04:40.305Z,100.00
2022-10-22T08:06:45.833Z,100.00
2022-10-22T08:08:50.237Z,100.00
2022-10-22T08:10:53.997Z,100.00
2022-10-22T08:12:56.990Z,100.00
2022-10-22T08:15:00.801Z,100.00
2022-10-22T08:17:03.416Z,100.00
2022-10-22T08:19:06.032Z,100.00
2022-10-22T08:21:10.463Z,100.00
2022-10-22T08:23:13.043Z,100.00
2022-10-22T08:25:16.414Z,100.00
2022-10-22T08:27:19.001Z,100.00
2022-10-22T08:29:22.780Z,100.00
2022-10-22T08:31:25.365Z,100.00
2022-10-22T08:33:27.961Z,100.00
2022-10-22T08:35:30.553Z,100.00
2022-10-22T08:37:34.776Z,100.00
2022-10-22T08:39:37.394Z,100.00
2022-10-22T08:41:55.389Z,100.00
2022-10-22T08:44:18.335Z,100.00
2022-10-22T08:46:34.353Z,100.00
2022-10-22T08:48:44.249Z,100.00
2022-10-22T08:50:49.869Z,100.00
2022-10-22T08:52:59.955Z,100.00
2022-10-22T08:55:04.137Z,98.50
2022-10-22T08:57:22.712Z,93.44
2022-10-22T08:59:30.227Z,93.32
2022-10-22T09:01:38.937Z,93.28
2022-10-22T09:03:48.958Z,97.43
2022-10-22T09:06:00.195Z,93.82
2022-10-22T09:08:04.874Z,92.83
2022-10-22T09:10:10.617Z,90.70
2022-10-22T09:12:20.098Z,90.28
2022-10-22T09:14:26.091Z,87.72
2022-10-22T09:16:37.623Z,90.16
2022-10-22T09:18:47.829Z,88.85
2022-10-22T09:20:55.626Z,88.08
2022-10-22T09:23:11.784Z,89.36
2022-10-22T09:25:20.812Z,84.82
2022-10-22T09:27:28.154Z,81.29
2022-10-22T09:29:34.911Z,81.17
2022-10-22T09:31:37.670Z,80.52
2022-10-22T09:33:41.912Z,85.83
2022-10-22T09:35:51.884Z,82.83
2022-10-22T09:37:56.144Z,85.53
2022-10-22T09:40:07.200Z,84.00
2022-10-22T09:42:11.417Z,83.95
2022-10-22T09:44:14.415Z,77.75
2022-10-22T09:46:19.168Z,79.12
2022-10-22T09:48:26.477Z,85.00
2022-10-22T09:50:37.938Z,84.95
2022-10-22T09:52:41.449Z,85.69
2022-10-22T09:54:44.261Z,90.04
2022-10-22T09:56:56.336Z,91.23
2022-10-22T09:58:59.184Z,92.73
2022-10-22T10:01:02.175Z,91.64
2022-10-22T10:03:04.809Z,94.17
2022-10-22T10:05:09.165Z,92.21
2022-10-22T10:07:17.427Z,92.20
2022-10-22T10:09:22.345Z,93.41
2022-10-22T10:11:30.385Z,91.04
2022-10-22T10:13:47.294Z,93.74
2022-10-22T10:15:56.013Z,93.53
2022-10-22T10:18:08.990Z,94.97
2022-10-22T10:20:28.822Z,92.55
2022-10-22T10:22:48.114Z,87.69
2022-10-22T10:25:07.769Z,86.05
2022-10-22T10:27:16.254Z,86.12
2022-10-22T10:29:45.919Z,84.65
2022-10-22T10:32:03.759Z,87.10
2022-10-22T10:34:18.830Z,89.17
2022-10-22T10:36:32.526Z,86.93
2022-10-22T10:38:50.196Z,88.11
2022-10-22T10:41:00.518Z,88.91
2022-10-22T10:43:11.069Z,90.22
2022-10-22T10:45:19.046Z,90.12
2022-10-22T10:47:34.555Z,90.08
2022-10-22T10:49:37.506Z,90.88
2022-10-22T10:51:48.532Z,88.63
2022-10-22T10:54:08.370Z,88.72
2022-10-22T10:56:33.452Z,85.13
2022-10-22T10:58:49.064Z,82.32
2022-10-22T11:00:58.092Z,81.20
2022-10-22T11:03:27.278Z,83.29
2022-10-22T11:05:38.805Z,83.56
2022-10-22T11:07:46.251Z,79.56
2022-10-22T11:09:54.560Z,80.27
2022-10-22T11:12:02.545Z,79.57
2022-10-22T11:14:12.423Z,78.59
2022-10-22T11:16:22.715Z,77.46
2022-10-22T11:18:31.532Z,77.35
2022-10-22T11:20:44.998Z,78.54
2022-10-22T11:23:17.353Z,80.91
2022-10-22T11:25:20.515Z,79.33
2022-10-22T11:27:29.446Z,80.18
2022-10-22T11:29:39.160Z,76.36
2022-10-22T11:31:44.397Z,74.40
2022-10-22T11:34:05.004Z,75.35
2022-10-22T11:36:14.277Z,73.87
2022-10-22T11:38:21.261Z,73.46
2022-10-22T11:40:34.150Z,71.42
2022-10-22T11:42:39.754Z,70.78
2022-10-22T11:46:59.835Z,71.79
2022-10-22T11:49:05.782Z,69.63
2022-10-22T11:51:30.978Z,70.33
2022-10-22T11:53:36.473Z,68.38
2022-10-22T11:55:48.441Z,68.82
2022-10-22T11:57:51.213Z,66.90
2022-10-22T11:59:58.469Z,68.53
2022-10-22T12:02:02.547Z,67.32
2022-10-22T12:04:23.165Z,65.30
2022-10-22T12:06:27.581Z,64.76
2022-10-22T12:08:31.019Z,64.14
2022-10-22T12:10:37.399Z,62.87
2022-10-22T12:12:40.938Z,64.94
2022-10-22T12:14:54.880Z,68.79
2022-10-22T12:16:59.567Z,65.54
2022-10-22T12:19:07.845Z,66.07
2022-10-22T12:21:14.014Z,65.86
2022-10-22T12:23:16.867Z,63.09
2022-10-22T12:25:23.830Z,62.09
2022-10-22T12:27:28.097Z,60.81
2022-10-22T12:29:33.438Z,60.33
2022-10-22T12:31:37.851Z,60.71
2022-10-22T12:33:40.843Z,60.72
2022-10-22T12:35:47.577Z,60.93
2022-10-22T12:37:51.623Z,62.99
2022-10-22T12:39:54.223Z,64.61
2022-10-22T12:41:56.845Z,65.96
2022-10-22T12:44:00.550Z,67.30
2022-10-22T12:46:03.224Z,68.34
2022-10-22T12:48:09.419Z,67.58
2022-10-22T12:50:18.709Z,66.51
2022-10-22T12:52:25.729Z,66.92
2022-10-22T12:54:31.792Z,63.55
2022-10-22T12:56:36.972Z,62.73
2022-10-22T12:58:42.156Z,59.92
2022-10-22T13:00:47.020Z,58.60
2022-10-22T13:02:50.245Z,55.69
2022-10-22T13:05:16.647Z,58.98
2022-10-22T13:07:22.210Z,55.45
2022-10-22T13:09:27.742Z,55.64
2022-10-22T13:11:33.324Z,56.93
2022-10-22T13:13:45.449Z,60.21
2022-10-22T13:15:47.905Z,59.00
2022-10-22T13:17:50.559Z,59.15
2022-10-22T13:20:05.214Z,59.69
2022-10-22T13:22:25.246Z,60.10
2022-10-22T13:24:30.380Z,58.41
2022-10-22T13:26:35.796Z,56.78
2022-10-22T13:28:38.442Z,56.41
2022-10-22T13:30:53.871Z,55.40
2022-10-22T13:32:59.551Z,57.89
2022-10-22T13:35:03.712Z,60.21
2022-10-22T13:37:09.596Z,59.69
2022-10-22T13:39:17.204Z,60.81
2022-10-22T13:41:23.781Z,62.79
2022-10-22T13:43:26.563Z,61.27
2022-10-22T13:45:29.181Z,59.19
2022-10-22T13:47:32.776Z,58.90
2022-10-22T13:49:35.922Z,60.75
2022-10-22T13:51:39.793Z,57.21
2022-10-22T13:53:43.648Z,59.27
2022-10-22T13:55:46.584Z,59.15
2022-10-22T13:57:50.523Z,60.21
2022-10-22T13:59:53.140Z,61.56
2022-10-22T14:01:56.985Z,61.07
2022-10-22T14:04:02.465Z,60.47
2022-10-22T14:06:08.671Z,60.91
2022-10-22T14:08:13.689Z,62.01
2022-10-22T14:10:19.375Z,62.36
2022-10-22T14:12:22.377Z,60.73
2022-10-22T14:14:26.353Z,60.50
2022-10-22T14:16:31.306Z,61.57
2022-10-22T14:18:35.129Z,60.70
2022-10-22T14:20:41.004Z,62.42
2022-10-22T14:22:43.624Z,61.80
2022-10-22T14:24:47.249Z,61.80
2022-10-22T14:26:50.155Z,62.30
2022-10-22T14:31:17.093Z,62.54
2022-10-22T14:33:27.289Z,62.54
2022-10-22T14:35:34.381Z,62.81
2022-10-22T14:37:36.968Z,62.78
2022-10-22T14:39:39.551Z,63.33
2022-10-22T14:41:43.307Z,63.92
2022-10-22T14:43:45.907Z,65.08
2022-10-22T14:45:48.904Z,64.86
2022-10-22T14:47:54.848Z,64.74
2022-10-22T14:49:57.432Z,65.16
2022-10-22T14:52:00.050Z,65.35
2022-10-22T14:54:02.629Z,63.99
2022-10-22T14:56:05.448Z,66.75
2022-10-22T14:58:08.308Z,65.32
2022-10-22T15:00:18.874Z,65.77
2022-10-22T15:02:22.317Z,66.92
2022-10-22T15:04:28.082Z,68.70
2022-10-22T15:06:30.683Z,66.56
2022-10-22T15:08:34.002Z,65.85
2022-10-22T15:10:36.756Z,65.04
2022-10-22T15:12:39.388Z,64.54
2022-10-22T15:14:42.003Z,65.50
2022-10-22T15:16:44.641Z,64.88
2022-10-22T15:18:47.246Z,65.59
2022-10-22T15:20:58.126Z,67.04
2022-10-22T15:23:00.729Z,67.65
2022-10-22T15:25:05.008Z,68.05
2022-10-22T15:27:08.030Z,68.35
2022-10-22T15:29:10.645Z,68.75
2022-10-22T15:31:15.223Z,68.46
2022-10-22T15:33:18.083Z,69.30
2022-10-22T15:35:20.704Z,69.82
2022-10-22T15:37:24.720Z,70.46
2022-10-22T15:39:27.603Z,72.22
2022-10-22T15:41:30.192Z,72.34
2022-10-22T15:43:32.870Z,71.45
2022-10-22T15:45:35.806Z,74.04
2022-10-22T15:47:38.519Z,72.03
2022-10-22T15:49:42.214Z,71.85
2022-10-22T15:51:44.979Z,70.34
2022-10-22T15:53:52.607Z,70.32
2022-10-22T15:55:55.601Z,70.79
2022-10-22T15:58:00.636Z,71.06
2022-10-22T16:00:07.415Z,72.05
2022-10-22T16:02:11.231Z,71.82
2022-10-22T16:04:14.246Z,73.43
2022-10-22T16:06:16.834Z,73.63
2022-10-22T16:08:19.891Z,72.71
2022-10-22T16:10:24.381Z,71.74
2022-10-22T16:12:27.034Z,72.47
2022-10-22T16:14:29.687Z,71.83
2022-10-22T16:16:35.121Z,80.31
2022-10-22T16:18:37.709Z,78.94
2022-10-22T16:20:41.554Z,81.35
2022-10-22T16:22:44.272Z,83.57
2022-10-22T16:24:46.956Z,85.10
2022-10-22T16:26:52.548Z,84.67
2022-10-22T16:28:55.196Z,84.72
2022-10-22T16:30:57.866Z,85.15
2022-10-22T16:33:03.305Z,87.00
2022-10-22T16:35:08.321Z,87.29
2022-10-22T16:37:11.072Z,90.19
2022-10-22T16:39:13.883Z,88.38
2022-10-22T16:41:19.115Z,91.78
2022-10-22T16:43:23.123Z,93.86
2022-10-22T16:45:25.937Z,95.90
2022-10-22T16:47:29.976Z,90.20
2022-10-22T16:49:32.707Z,89.84
2022-10-22T16:51:36.516Z,91.32
2022-10-22T16:53:39.498Z,87.69
2022-10-22T16:55:42.347Z,88.28
2022-10-22T16:57:45.112Z,89.17
2022-10-22T16:59:49.816Z,90.38
2022-10-22T17:01:52.589Z,91.88
2022-10-22T17:03:55.613Z,91.52
2022-10-22T17:05:59.479Z,91.15
2022-10-22T17:08:02.119Z,95.17
2022-10-22T17:10:06.087Z,92.04
2022-10-22T17:12:08.760Z,93.37
2022-10-22T17:14:11.577Z,95.53
2022-10-22T17:16:17.484Z,93.80
2022-10-22T17:18:20.363Z,92.57
2022-10-22T17:20:23.699Z,92.92
2022-10-22T17:22:27.238Z,93.74
2022-10-22T17:24:29.851Z,93.14
2022-10-22T17:26:33.220Z,93.00
2022-10-22T17:28:37.211Z,92.53
2022-10-22T17:30:41.052Z,90.36
2022-10-22T17:32:45.767Z,90.21
2022-10-22T17:34:48.545Z,92.27
2022-10-22T17:36:51.741Z,95.06
2022-10-22T17:38:56.248Z,96.76
2022-10-22T17:41:04.409Z,98.21
2022-10-22T17:43:09.237Z,99.00
2022-10-22T17:45:12.788Z,95.46
2022-10-22T17:47:16.026Z,95.12
2022-10-22T17:49:21.380Z,94.40
2022-10-22T17:51:25.405Z,93.92
2022-10-22T17:53:28.283Z,89.87
2022-10-22T17:55:31.076Z,93.35
2022-10-22T17:57:33.738Z,95.94
2022-10-22T17:59:37.060Z,94.24
2022-10-22T18:01:45.049Z,93.71
2022-10-22T18:03:47.816Z,95.81
2022-10-22T18:05:51.725Z,94.64
2022-10-22T18:07:56.066Z,95.88
2022-10-22T18:09:58.836Z,97.67
2022-10-22T18:12:01.784Z,97.98
2022-10-22T18:14:05.534Z,99.64
2022-10-22T18:16:08.370Z,98.48
2022-10-22T18:18:11.340Z,100.00
2022-10-22T18:20:14.088Z,100.00
2022-10-22T18:22:18.353Z,100.00
2022-10-22T18:24:21.058Z,100.00
2022-10-22T18:26:26.689Z,100.00
2022-10-22T18:28:31.026Z,100.00
2022-10-22T18:30:33.657Z,100.00
2022-10-22T18:32:36.281Z,100.00
2022-10-22T18:34:38.940Z,100.00
2022-10-22T18:36:42.304Z,100.00
2022-10-22T18:38:50.118Z,100.00
2022-10-22T18:40:52.702Z,100.00
2022-10-22T18:42:55.274Z,100.00
2022-10-22T18:44:57.935Z,100.00
2022-10-22T18:47:01.046Z,100.00
2022-10-22T18:49:03.687Z,100.00
2022-10-22T18:51:08.632Z,100.00
2022-10-22T18:53:16.016Z,100.00
2022-10-22T18:55:20.097Z,100.00
2022-10-22T18:57:22.698Z,100.00
2022-10-22T18:59:27.119Z,100.00
2022-10-22T19:01:30.404Z,100.00
2022-10-22T19:03:33.080Z,100.00
2022-10-22T19:05:35.704Z,100.00
2022-10-22T19:07:38.486Z,100.00
2022-10-22T19:09:43.376Z,100.00
2022-10-22T19:11:47.419Z,100.00
2022-10-22T19:13:50.172Z,100.00
2022-10-22T19:15:53.180Z,100.00
2022-10-22T19:17:55.805Z,100.00
2022-10-22T19:19:58.402Z,100.00
2022-10-22T19:22:00.986Z,100.00
2022-10-22T19:24:03.697Z,100.00
2022-10-22T19:26:09.965Z,100.00
2022-10-22T19:28:13.910Z,100.00
2022-10-22T19:30:17.341Z,100.00
2022-10-22T19:32:20.149Z,100.00
2022-10-22T19:34:22.956Z,100.00
2022-10-22T19:36:27.593Z,100.00
2022-10-22T19:38:30.290Z,100.00
2022-10-22T19:40:32.870Z,100.00
2022-10-22T19:42:36.901Z,100.00
2022-10-22T19:44:40.948Z,100.00
2022-10-22T19:46:43.598Z,100.00
2022-10-22T19:48:46.847Z,100.00
2022-10-22T19:50:49.568Z,100.00
2022-10-22T19:52:52.223Z,100.00
2022-10-22T19:54:54.833Z,100.00
2022-10-22T19:56:57.521Z,100.00
2022-10-22T19:59:00.586Z,100.00
2022-10-22T20:01:08.693Z,100.00
2022-10-22T20:03:14.092Z,100.00
2022-10-22T20:05:16.869Z,100.00
2022-10-22T20:07:19.503Z,100.00
2022-10-22T20:09:22.157Z,100.00
2022-10-22T20:11:27.344Z,100.00
2022-10-22T20:13:30.039Z,100.00
2022-10-22T20:15:33.275Z,100.00
2022-10-22T20:17:37.255Z,100.00
2022-10-22T20:19:39.843Z,100.00
2022-10-22T20:21:43.056Z,100.00
2022-10-22T20:23:46.746Z,100.00
2022-10-22T20:25:49.570Z,100.00
2022-10-22T20:27:52.168Z,100.00
2022-10-22T20:29:54.841Z,100.00
2022-10-22T20:31:57.485Z,100.00
2022-10-22T20:34:02.214Z,100.00
2022-10-22T20:36:07.189Z,100.00
2022-10-22T20:38:14.489Z,100.00
2022-10-22T20:40:17.240Z,100.00
2022-10-22T20:42:19.845Z,100.00
2022-10-22T20:44:22.435Z,100.00
2022-10-22T20:46:26.728Z,100.00
2022-10-22T20:48:31.287Z,100.00
2022-10-22T20:50:35.295Z,100.00
2022-10-22T20:52:37.909Z,100.00
2022-10-22T20:54:42.453Z,100.00
2022-10-22T20:56:45.131Z,100.00
2022-10-22T20:58:48.895Z,100.00
2022-10-22T21:00:52.212Z,100.00
2022-10-22T21:02:54.852Z,100.00
2022-10-22T21:04:57.416Z,100.00
2022-10-22T21:07:01.408Z,100.00
2022-10-22T21:09:04.378Z,100.00
2022-10-22T21:11:07.149Z,100.00
2022-10-22T21:13:10.589Z,100.00
2022-10-22T21:15:13.741Z,100.00
2022-10-22T21:17:16.409Z,100.00
2022-10-22T21:19:22.410Z,100.00
2022-10-22T21:21:25.072Z,100.00
2022-10-22T21:23:29.092Z,100.00
2022-10-22T21:25:31.698Z,100.00
2022-10-22T21:27:34.933Z,100.00
2022-10-22T21:29:37.533Z,100.00
2022-10-22T21:31:40.451Z,100.00
2022-10-22T21:33:43.124Z,100.00
2022-10-22T21:35:51.967Z,100.00
2022-10-22T21:37:54.612Z,100.00
2022-10-22T21:39:58.530Z,100.00
2022-10-22T21:42:01.132Z,100.00
2022-10-22T21:44:03.866Z,100.00
2022-10-22T21:46:08.581Z,100.00
2022-10-22T21:48:12.968Z,100.00
2022-10-22T21:50:15.554Z,100.00
2022-10-22T21:52:18.177Z,100.00
2022-10-22T21:54:20.771Z,100.00
2022-10-22T21:56:27.468Z,100.00
2022-10-22T21:58:29.893Z,100.00
2022-10-22T22:00:32.564Z,100.00
2022-10-22T22:02:35.368Z,100.00
2022-10-22T22:04:37.979Z,100.00
2022-10-22T22:06:40.585Z,100.00
2022-10-22T22:08:42.436Z,100.00
2022-10-22T22:10:45.049Z,100.00
2022-10-22T22:12:49.014Z,100.00
2022-10-22T22:14:51.586Z,100.00
2022-10-22T22:16:54.160Z,100.00
2022-10-22T22:18:57.668Z,100.00
2022-10-22T22:21:00.812Z,100.00
2022-10-22T22:23:03.433Z,100.00
2022-10-22T22:25:06.351Z,100.00
2022-10-22T22:27:09.007Z,100.00
2022-10-22T22:29:12.988Z,100.00
2022-10-22T22:31:17.201Z,100.00
2022-10-22T22:33:19.876Z,100.00
2022-10-22T22:35:22.448Z,100.00
2022-10-22T22:37:25.059Z,100.00
2022-10-22T22:39:27.690Z,100.00
2022-10-22T22:41:30.350Z,100.00
2022-10-22T22:43:33.150Z,100.00
2022-10-22T22:45:37.930Z,100.00
2022-10-22T22:47:40.686Z,100.00
2022-10-22T22:49:43.476Z,100.00
2022-10-22T22:51:46.109Z,100.00
2022-10-22T22:53:48.844Z,100.00
2022-10-22T22:55:51.442Z,100.00
2022-10-22T22:57:54.255Z,100.00
2022-10-22T22:59:56.909Z,100.00
2022-10-22T23:02:01.039Z,100.00
2022-10-22T23:04:05.727Z,100.00
2022-10-22T23:06:08.891Z,100.00
2022-10-22T23:08:11.483Z,100.00
2022-10-22T23:10:14.159Z,100.00
2022-10-22T23:12:16.782Z,100.00
2022-10-22T23:14:20.327Z,100.00
2022-10-22T23:16:25.359Z,100.00
2022-10-22T23:18:29.327Z,100.00
2022-10-22T23:20:31.948Z,100.00
2022-10-22T23:22:34.616Z,100.00
2022-10-22T23:24:37.389Z,100.00
2022-10-22T23:26:42.168Z,100.00
2022-10-22T23:28:44.819Z,100.00
2022-10-22T23:30:47.442Z,100.00
2022-10-22T23:32:50.116Z,100.00
2022-10-22T23:34:54.083Z,100.00
2022-10-22T23:36:57.591Z,100.00
2022-10-22T23:39:00.207Z,100.00
2022-10-22T23:41:03.285Z,100.00
2022-10-22T23:43:06.021Z,100.00
2022-10-22T23:45:09.328Z,100.00
2022-10-22T23:47:11.930Z,100.00
2022-10-22T23:49:16.038Z,100.00
2022-10-22T23:51:20.711Z,100.00
2022-10-22T23:53:23.643Z,100.00
2022-10-22T23:55:26.236Z,100.00
2022-10-22T23:57:28.847Z,100.00
2022-10-22T23:59:31.499Z,100.00
